| time (UTC) | temp F | wind direction | speed MPH | gust MPH | rain 1hr in | rain 24hr in | rain mn in | humidity % | barometer mb |
| 20260901204551 | 64 | 242 | 0.0 | 3.0 | 0.00 | 0.00 | 0.00 | 73 | 1021.0 |
| 20260901203051 | 66 | 242 | 0.0 | 2.0 | 0.00 | 0.00 | 0.00 | 72 | 1020.8 |
| 20260901201551 | 66 | 242 | 0.0 | 4.0 | 0.00 | 0.00 | 0.00 | 71 | 1020.6 |
| 20260901200105 | 67 | 242 | 3.0 | 6.0 | 0.00 | 0.00 | 0.00 | 70 | 1020.4 |
| 20260901194558 | 68 | 242 | 5.0 | 7.0 | 0.00 | 0.00 | 0.00 | 71 | 1020.3 |
| 20260901193056 | 69 | 242 | 6.0 | 9.0 | 0.00 | 0.00 | 0.00 | 71 | 1020.1 |
| 20260901191548 | 69 | 242 | 4.0 | 10.0 | 0.00 | 0.00 | 0.00 | 71 | 1019.8 |
| 20260901190054 | 71 | 242 | 5.0 | 9.0 | 0.00 | 0.00 | 0.00 | 70 | 1019.6 |
| 20260901184552 | 72 | 240 | 7.0 | 10.0 | 0.00 | 0.00 | 0.00 | 68 | 1019.5 |
| 20260901183051 | 74 | 237 | 4.0 | 10.0 | 0.00 | 0.00 | 0.00 | 66 | 1019.3 |
| 20260901181550 | 75 | 236 | 7.0 | 11.0 | 0.00 | 0.00 | 0.00 | 63 | 1019.2 |
| 20260901180046 | 76 | 234 | 7.0 | 13.0 | 0.00 | 0.00 | 0.00 | 62 | 1019.0 |
| 20260901174545 | 78 | 250 | 8.0 | 13.0 | 0.00 | 0.00 | 0.00 | 59 | 1018.7 |
| 20260901173044 | 79 | 259 | 7.0 | 11.0 | 0.00 | 0.00 | 0.00 | 55 | 1018.5 |
| 20260901171556 | 80 | 259 | 5.0 | 10.0 | 0.00 | 0.00 | 0.00 | 51 | 1018.4 |
| 20260901170044 | 81 | 259 | 6.0 | 10.0 | 0.00 | 0.00 | 0.00 | 49 | 1018.2 |
| 20260901164551 | 81 | 250 | 6.0 | 11.0 | 0.00 | 0.00 | 0.00 | 49 | 1018.2 |
| 20260901163041 | 81 | 259 | 7.0 | 11.0 | 0.00 | 0.00 | 0.00 | 48 | 1018.2 |
| 20260901161544 | 82 | 254 | 5.0 | 11.0 | 0.00 | 0.00 | 0.00 | 47 | 1018.1 |
| 20260901160039 | 82 | 272 | 6.0 | 12.0 | 0.00 | 0.00 | 0.00 | 46 | 1018.2 |
| 20260901154536 | 82 | 269 | 3.0 | 7.0 | 0.00 | 0.00 | 0.00 | 44 | 1018.2 |
| 20260901153033 | 82 | 269 | 3.0 | 7.0 | 0.00 | 0.00 | 0.00 | 44 | 1018.3 |
| 20260901151539 | 81 | 269 | 5.0 | 9.0 | 0.00 | 0.00 | 0.00 | 47 | 1018.3 |
| 20260901150032 | 81 | 268 | 6.0 | 14.0 | 0.00 | 0.00 | 0.00 | 47 | 1018.4 |
| 20260901144528 | 81 | 252 | 6.0 | 11.0 | 0.00 | 0.00 | 0.00 | 48 | 1018.4 |
| 20260901143029 | 81 | 243 | 6.0 | 10.0 | 0.00 | 0.00 | 0.00 | 47 | 1018.5 |
| 20260901141523 | 80 | 247 | 5.0 | 10.0 | 0.00 | 0.00 | 0.00 | 50 | 1018.6 |
| 20260901140026 | 80 | 248 | 4.0 | 8.0 | 0.00 | 0.00 | 0.00 | 50 | 1018.6 |
| 20260901134522 | 79 | 249 | 5.0 | 9.0 | 0.00 | 0.00 | 0.00 | 51 | 1018.9 |
| 20260901133024 | 79 | 259 | 6.0 | 11.0 | 0.00 | 0.00 | 0.00 | 52 | 1019.0 |
| 20260901131513 | 79 | 250 | 4.0 | 7.0 | 0.00 | 0.00 | 0.00 | 53 | 1019.2 |
| 20260901130014 | 79 | 236 | 4.0 | 9.0 | 0.00 | 0.00 | 0.00 | 53 | 1019.1 |
| 20260901124514 | 78 | 221 | 0.0 | 5.0 | 0.00 | 0.00 | 0.00 | 53 | 1019.2 |
| 20260901123008 | 77 | 224 | 3.0 | 6.0 | 0.00 | 0.00 | 0.00 | 53 | 1019.3 |
| 20260901121505 | 76 | 224 | 1.0 | 7.0 | 0.00 | 0.00 | 0.00 | 56 | 1019.5 |
| 20260901120002 | 76 | 224 | 2.0 | 7.0 | 0.00 | 0.00 | 0.00 | 57 | 1019.4 |
| 20260901114601 | 74 | 213 | 3.0 | 7.0 | 0.00 | 0.00 | 0.00 | 60 | 1019.6 |
| 20260901113105 | 73 | 213 | 3.0 | 8.0 | 0.00 | 0.00 | 0.00 | 59 | 1019.7 |
| 20260901111554 | 72 | 254 | 2.0 | 6.0 | 0.00 | 0.00 | 0.00 | 62 | 1020.0 |
| 20260901110056 | 72 | 254 | 4.0 | 7.0 | 0.00 | 0.00 | 0.00 | 64 | 1020.3 |
| 20260901104557 | 70 | 254 | 4.0 | 9.0 | 0.00 | 0.00 | 0.00 | 68 | 1020.1 |
| 20260901103043 | 67 | 242 | 1.0 | 5.0 | 0.00 | 0.00 | 0.00 | 74 | 1020.3 |
| 20260901101538 | 65 | 242 | 0.0 | 7.0 | 0.00 | 0.00 | 0.00 | 79 | 1020.6 |
| 20260901100038 | 62 | 242 | 0.0 | 3.0 | 0.00 | 0.00 | 0.00 | 83 | 1020.8 |
| 20260901094529 | 60 | 242 | 2.0 | 5.0 | 0.00 | 0.00 | 0.00 | 83 | 1020.7 |
| 20260901093026 | 59 | 242 | 0.0 | 3.0 | 0.00 | 0.00 | 0.00 | 84 | 1020.7 |
| 20260901091522 | 58 | 242 | 1.0 | 4.0 | 0.00 | 0.00 | 0.00 | 84 | 1020.8 |
| 20260901090022 | 58 | 242 | 0.0 | 4.0 | 0.00 | 0.00 | 0.00 | 84 | 1020.8 |
| 20260901084522 | 58 | 242 | 1.0 | 5.0 | 0.00 | 0.00 | 0.00 | 84 | 1020.6 |
| 20260901083026 | 57 | 242 | 2.0 | 7.0 | 0.00 | 0.00 | 0.00 | 84 | 1020.5 |
| 20260901081522 | 59 | 242 | 4.0 | 6.0 | 0.00 | 0.00 | 0.00 | 85 | 1020.3 |
| 20260901080019 | 58 | 242 | 1.0 | 3.0 | 0.00 | 0.00 | 0.00 | 85 | 1020.3 |
| 20260901074513 | 56 | 242 | 0.0 | 2.0 | 0.00 | 0.00 | 0.00 | 86 | 1020.3 |
| 20260901073009 | 55 | 242 | 0.0 | 0.0 | 0.00 | 0.00 | 0.00 | 86 | 1020.3 |
| 20260901071509 | 54 | 242 | 0.0 | 0.0 | 0.00 | 0.00 | 0.00 | 85 | 1020.3 |
| 20260901070002 | 53 | 242 | 0.0 | 2.0 | 0.00 | 0.00 | 0.00 | 85 | 1020.1 |
| 20260901064600 | 53 | 242 | 1.0 | 3.0 | 0.00 | 0.00 | 0.00 | 85 | 1020.2 |
| 20260901063100 | 54 | 242 | 1.0 | 3.0 | 0.00 | 0.00 | 0.00 | 85 | 1020.3 |
| 20260901061558 | 54 | 242 | 1.0 | 3.0 | 0.00 | 0.00 | 0.00 | 85 | 1020.2 |
| 20260901060055 | 54 | 242 | 0.0 | 0.0 | 0.00 | 0.00 | 0.00 | 85 | 1019.9 |
| 20260901054556 | 54 | 242 | 0.0 | 0.0 | 0.00 | 0.00 | 0.00 | 85 | 1019.7 |
| 20260901053105 | 54 | 242 | 0.0 | 0.0 | 0.00 | 0.00 | 0.00 | 84 | 1019.6 |
| 20260901051557 | 55 | 242 | 0.0 | 0.0 | 0.00 | 0.00 | 0.00 | 85 | 1019.5 |
| 20260901050054 | 54 | 242 | 0.0 | 0.0 | 0.00 | 0.00 | 0.00 | 85 | 1019.5 |
| 20260901044615 | 54 | 242 | 0.0 | 0.0 | 0.00 | 0.00 | 0.00 | 85 | 1019.5 |
| 20260901043052 | 53 | 242 | 0.0 | 0.0 | 0.00 | 0.00 | 0.00 | 85 | 1019.5 |
| 20260901041551 | 53 | 242 | 0.0 | 3.0 | 0.00 | 0.00 | 0.00 | 85 | 1019.5 |
| 20260901040051 | 51 | 242 | 0.0 | 2.0 | 0.00 | 0.00 | 0.00 | 84 | 1019.4 |
| 20260901034550 | 52 | 242 | 1.0 | 3.0 | 0.00 | 0.00 | 0.00 | 85 | 1019.7 |
| 20260901033050 | 51 | 242 | 2.0 | 4.0 | 0.00 | 0.00 | 0.00 | 84 | 1019.7 |
| 20260901031551 | 51 | 242 | 2.0 | 3.0 | 0.00 | 0.00 | 0.00 | 84 | 1019.3 |
| 20260901030052 | 51 | 242 | 0.0 | 3.0 | 0.00 | 0.00 | 0.00 | 84 | 1019.3 |
| 20260901024545 | 51 | 242 | 0.0 | 2.0 | 0.00 | 0.00 | 0.00 | 84 | 1019.7 |
| 20260901023044 | 51 | 242 | 0.0 | 2.0 | 0.00 | 0.00 | 0.00 | 84 | 1020.1 |
| 20260901021540 | 51 | 242 | 0.0 | 1.0 | 0.00 | 0.00 | 0.00 | 84 | 1020.1 |
| 20260901020036 | 52 | 242 | 0.0 | 2.0 | 0.00 | 0.00 | 0.00 | 84 | 1020.3 |
| 20260901014540 | 52 | 242 | 0.0 | 1.0 | 0.00 | 0.00 | 0.00 | 84 | 1020.6 |
| 20260901013034 | 52 | 242 | 1.0 | 2.0 | 0.00 | 0.00 | 0.00 | 83 | 1020.7 |
| 20260901011531 | 53 | 242 | 0.0 | 0.0 | 0.00 | 0.00 | 0.00 | 83 | 1020.8 |
| 20260901010034 | 53 | 242 | 0.0 | 1.0 | 0.00 | 0.00 | 0.00 | 84 | 1020.6 |
| 20260901004536 | 53 | 242 | 0.0 | 2.0 | 0.00 | 0.00 | 0.00 | 83 | 1020.8 |
| 20260901003034 | 54 | 242 | 1.0 | 2.0 | 0.00 | 0.00 | 0.00 | 83 | 1021.0 |
| 20260901001528 | 54 | 242 | 0.0 | 0.0 | 0.00 | 0.00 | 0.00 | 83 | 1020.9 |
| 20260901000021 | 55 | 242 | 0.0 | 0.0 | 0.00 | 0.00 | 0.00 | 83 | 1020.8 |
| 20260831234521 | 55 | 242 | 0.0 | 0.0 | 0.00 | 0.00 | 0.00 | 82 | 1020.9 |
| 20260831233020 | 56 | 242 | 0.0 | 0.0 | 0.00 | 0.00 | 0.00 | 82 | 1020.9 |
| 20260831231524 | 56 | 242 | 0.0 | 0.0 | 0.00 | 0.00 | 0.00 | 81 | 1020.9 |
| 20260831230020 | 57 | 242 | 0.0 | 0.0 | 0.00 | 0.00 | 0.00 | 81 | 1020.9 |
| 20260831224519 | 58 | 242 | 0.0 | 0.0 | 0.00 | 0.00 | 0.00 | 80 | 1020.9 |
| 20260831223020 | 60 | 242 | 0.0 | 1.0 | 0.00 | 0.00 | 0.00 | 79 | 1021.0 |
| 20260831221531 | 61 | 242 | 1.0 | 5.0 | 0.00 | 0.00 | 0.00 | 79 | 1021.2 |
| 20260831220018 | 61 | 242 | 2.0 | 5.0 | 0.00 | 0.00 | 0.00 | 79 | 1021.2 |
| 20260831214533 | 62 | 242 | 3.0 | 7.0 | 0.00 | 0.00 | 0.00 | 78 | 1021.2 |
| 20260831213018 | 63 | 242 | 2.0 | 6.0 | 0.00 | 0.00 | 0.00 | 78 | 1021.3 |
| 20260831211521 | 62 | 242 | 3.0 | 5.0 | 0.00 | 0.00 | 0.00 | 79 | 1021.3 |
| 20260831210016 | 63 | 242 | 1.0 | 4.0 | 0.00 | 0.00 | 0.00 | 77 | 1021.0 |